Terminal Aerodrome Forecast
Issued by NWS

Home | Current Version | Previous Version | Text Only | Print | Product List | Glossary On
Versions: 1 2 3 4 5 6 7 8 9 10 11 12
000
FTUS45 KLKN 191733
TAFELY
TAF
KELY 191733Z 1918/2018 17009KT P6SM SCT120
     FM192100 21010G17KT P6SM VCTS BKN100CB OVC150
     FM200300 19008KT P6SM SCT150=

USA.gov is the U.S. government's official web portal to all federal, state and local government web resources and services.